Portada
METAR-TAF:

METAR-TAF

Aeroports :

Ubon Ratchathani, Tailàndia

latitud: 15-15N, longitud: 104-52E, altitud: 123 m

Observació

L'informe es va fer fa 32 minuts, a les 10:30 UTC
Vent 4 kt del Nord, variant entre Nord-Oest i Nord/Nord-Est
Temperatura 33°C
Humitat 28%
Pressió 1011 hPa
Visibilitat: 9000 m

METAR: VTUU 261030Z 35004KT 320V020 9000 NSC 33/12 Q1011 NOSIG

Hora: 18:02 (11:02 UTC)

Pronòstic

L'informe es va fer fa 6 hores i 2 minuts, a les 05:00 UTC
Pronòstic vàlid del 26 a les 06 UTC al 27 a les 06 UTC
Vent 5 kt del Est/Sud-Est
Visibilitat: 9000 m

TAF: VTUU 260500Z 2606/2706 11005KT 9000 NSC

Observacions i pronòstics meteorològics de més de 4000 aeroports (METAR i TAF).

Les estacions disponibles són els punts grocs i vermells al mapa.

Posi el ratolí al punt desitjat per veure el nom de l'estació.

Feu clic per veure les observacions i els pronòstics meteorològics.

Per canviar el mapa: feu clic els botons verds amb una creu de color negre per apropar; al botó verd amb un guió per allunyar la imatge; o en les fletxes verdes per a mapes adjacents.


METAR-TAF: